createdAt,value
2023-03-19T00:00:44.809Z,7.68
2023-03-19T00:03:17.490Z,10.02
2023-03-19T00:05:54.054Z,7.00
2023-03-19T00:08:26.988Z,8.40
2023-03-19T00:13:33.580Z,10.50
2023-03-19T00:16:06.919Z,8.65
2023-03-19T00:18:39.648Z,9.80
2023-03-19T00:21:12.341Z,12.98
2023-03-19T00:23:45.058Z,12.50
2023-03-19T00:26:17.726Z,7.68
2023-03-19T00:28:52.052Z,8.60
2023-03-19T00:31:25.632Z,8.77
2023-03-19T00:33:58.992Z,9.38
2023-03-19T00:36:31.645Z,9.07
2023-03-19T00:39:04.557Z,10.15
2023-03-19T00:41:37.887Z,9.60
2023-03-19T00:46:44.616Z,12.40
2023-03-19T00:49:17.815Z,10.25
2023-03-19T00:51:50.889Z,9.35
2023-03-19T00:54:23.913Z,10.90
2023-03-19T00:56:56.872Z,11.35
2023-03-19T00:59:31.030Z,10.95
2023-03-19T01:02:04.307Z,13.52
2023-03-19T01:04:37.358Z,13.98
2023-03-19T01:07:10.134Z,15.02
2023-03-19T01:09:43.066Z,15.10
2023-03-19T01:14:49.717Z,15.70
2023-03-19T01:17:22.942Z,13.73
2023-03-19T01:19:56.380Z,14.40
2023-03-19T01:22:29.311Z,14.20
2023-03-19T01:25:05.816Z,14.27
2023-03-19T01:27:38.458Z,13.95
2023-03-19T01:30:14.371Z,15.10
2023-03-19T01:33:07.385Z,18.08
2023-03-19T01:35:46.617Z,15.70
2023-03-19T01:38:19.710Z,14.32
2023-03-19T01:40:53.268Z,15.30
2023-03-19T01:43:27.975Z,14.65
2023-03-19T01:46:08.379Z,15.38
2023-03-19T01:48:59.863Z,17.90
2023-03-19T01:51:36.858Z,14.93
2023-03-19T01:54:31.188Z,15.70
2023-03-19T01:57:33.390Z,15.15
2023-03-19T02:00:29.282Z,15.88
2023-03-19T02:03:04.724Z,14.90
2023-03-19T02:05:57.554Z,16.50
2023-03-19T02:08:31.877Z,14.45
2023-03-19T02:11:06.413Z,14.70
2023-03-19T02:13:39.989Z,11.45
2023-03-19T02:16:13.015Z,14.48
2023-03-19T02:18:48.832Z,13.75
2023-03-19T02:21:22.597Z,13.85
2023-03-19T02:24:04.237Z,14.77
2023-03-19T02:26:54.951Z,19.48
2023-03-19T02:29:27.649Z,14.45
2023-03-19T02:32:03.969Z,14.50
2023-03-19T02:34:39.250Z,13.15
2023-03-19T02:37:17.514Z,15.40
2023-03-19T02:39:58.713Z,14.25
2023-03-19T02:42:32.799Z,14.02
2023-03-19T02:45:07.233Z,15.73
2023-03-19T02:47:40.207Z,15.48
2023-03-19T02:50:13.397Z,17.25
2023-03-19T02:52:46.341Z,19.15
2023-03-19T02:55:21.380Z,22.45
2023-03-19T02:57:56.033Z,22.25
2023-03-19T03:00:28.776Z,24.63
2023-03-19T03:03:02.808Z,27.50
2023-03-19T03:05:36.697Z,26.30
2023-03-19T03:08:09.396Z,26.50
2023-03-19T03:10:42.208Z,25.73
2023-03-19T03:13:16.295Z,27.63
2023-03-19T03:15:49.279Z,24.75
2023-03-19T03:20:55.037Z,25.77
2023-03-19T03:26:00.624Z,30.20
2023-03-19T03:28:35.290Z,26.30
2023-03-19T03:31:08.950Z,25.80
2023-03-19T03:33:42.050Z,27.77
2023-03-19T03:36:15.180Z,28.33
2023-03-19T03:38:47.935Z,27.55
2023-03-19T03:41:21.453Z,28.95
2023-03-19T03:43:55.565Z,28.42
2023-03-19T03:46:28.608Z,28.88
2023-03-19T03:51:34.573Z,32.03
2023-03-19T03:54:08.080Z,29.85
2023-03-19T03:56:41.025Z,31.30
2023-03-19T03:59:15.281Z,28.83
2023-03-19T04:01:48.319Z,31.35
2023-03-19T04:06:53.996Z,35.67
2023-03-19T04:09:52.974Z,33.58
2023-03-19T04:12:26.265Z,34.40
2023-03-19T04:15:00.643Z,34.97
2023-03-19T04:17:33.853Z,31.38
2023-03-19T04:20:07.677Z,31.30
2023-03-19T04:22:40.481Z,32.90
2023-03-19T04:25:13.339Z,31.67
2023-03-19T04:27:46.907Z,35.08
2023-03-19T04:30:21.252Z,33.42
2023-03-19T04:32:54.072Z,36.10
2023-03-19T04:38:00.034Z,32.53
2023-03-19T04:40:33.221Z,35.05
2023-03-19T04:43:06.242Z,37.28
2023-03-19T04:45:41.805Z,43.80
2023-03-19T04:48:14.505Z,34.60
2023-03-19T04:50:51.780Z,37.85
2023-03-19T04:53:25.265Z,37.38
2023-03-19T04:55:58.023Z,36.33
2023-03-19T04:58:30.879Z,37.75
2023-03-19T05:01:09.245Z,40.15
2023-03-19T05:04:02.435Z,41.00
2023-03-19T05:06:37.662Z,38.58
2023-03-19T05:09:10.908Z,47.25
2023-03-19T05:11:43.569Z,41.00
2023-03-19T05:14:21.762Z,44.28
2023-03-19T05:17:16.272Z,37.42
2023-03-19T05:20:09.492Z,41.63
2023-03-19T05:22:44.838Z,39.97
2023-03-19T05:25:17.578Z,44.70
2023-03-19T05:27:50.907Z,44.13
2023-03-19T05:30:27.293Z,44.40
2023-03-19T05:33:09.753Z,44.88
2023-03-19T05:35:47.094Z,40.63
2023-03-19T05:38:28.661Z,31.00
2023-03-19T05:41:08.971Z,44.45
2023-03-19T05:43:49.792Z,47.40
2023-03-19T05:46:37.736Z,48.50
2023-03-19T05:51:44.613Z,47.28
2023-03-19T05:57:05.197Z,50.35
2023-03-19T05:59:38.009Z,49.63
2023-03-19T06:02:29.285Z,55.67
2023-03-19T06:05:19.170Z,53.60
2023-03-19T06:07:52.302Z,52.75
2023-03-19T06:10:43.062Z,55.38
2023-03-19T06:13:17.063Z,64.40
2023-03-19T06:16:04.833Z,58.15
2023-03-19T06:18:41.006Z,61.55
2023-03-19T06:21:19.613Z,58.65
2023-03-19T06:23:52.681Z,65.28
2023-03-19T06:26:32.371Z,63.30
2023-03-19T06:29:06.171Z,63.10
2023-03-19T06:31:41.643Z,59.33
2023-03-19T06:34:27.635Z,62.05
2023-03-19T06:39:35.035Z,59.35
2023-03-19T06:42:08.218Z,58.35
2023-03-19T06:44:41.213Z,57.28
2023-03-19T06:47:14.282Z,50.70
2023-03-19T06:49:47.822Z,60.17
2023-03-19T06:52:22.339Z,57.22
2023-03-19T06:54:55.306Z,60.85
2023-03-19T07:00:00.907Z,57.63
2023-03-19T07:02:33.705Z,61.10
2023-03-19T07:05:07.509Z,52.47
2023-03-19T07:07:41.714Z,54.50
2023-03-19T07:10:14.754Z,54.65
2023-03-19T07:12:47.491Z,55.05
2023-03-19T07:15:21.507Z,54.72
2023-03-19T07:17:54.187Z,46.53
2023-03-19T07:20:27.054Z,46.28
2023-03-19T07:23:01.264Z,50.03
2023-03-19T07:25:34.142Z,43.00
2023-03-19T07:30:39.912Z,51.40
2023-03-19T07:33:14.060Z,46.30
2023-03-19T07:35:46.965Z,48.25
2023-03-19T07:38:21.154Z,51.45
2023-03-19T07:41:01.898Z,46.13
2023-03-19T07:43:35.375Z,47.75
2023-03-19T07:46:09.312Z,52.75
2023-03-19T07:48:42.144Z,51.50
2023-03-19T07:51:14.826Z,54.08
2023-03-19T07:53:49.037Z,48.70
2023-03-19T07:56:21.961Z,41.17
2023-03-19T07:58:54.696Z,46.38
2023-03-19T08:01:31.356Z,48.53
2023-03-19T08:04:06.381Z,48.03
2023-03-19T08:06:41.319Z,51.38
2023-03-19T08:09:25.536Z,55.47
2023-03-19T08:11:58.314Z,50.22
2023-03-19T08:14:31.067Z,44.67
2023-03-19T08:17:03.815Z,50.47
2023-03-19T08:22:09.420Z,45.42
2023-03-19T08:24:43.628Z,47.10
2023-03-19T08:27:16.842Z,44.83
2023-03-19T08:29:49.614Z,49.40
2023-03-19T08:32:22.566Z,51.90
2023-03-19T08:37:28.748Z,44.95
2023-03-19T08:40:03.011Z,48.17
2023-03-19T08:42:38.835Z,55.75
2023-03-19T08:45:13.766Z,49.35
2023-03-19T08:47:46.624Z,51.33
2023-03-19T08:52:52.752Z,51.03
2023-03-19T08:57:59.665Z,46.08
2023-03-19T09:03:06.952Z,43.08
2023-03-19T09:05:39.767Z,45.80
2023-03-19T09:10:46.762Z,45.88
2023-03-19T09:13:22.329Z,43.83
2023-03-19T09:15:55.397Z,51.28
2023-03-19T09:18:28.324Z,47.70
2023-03-19T09:23:34.116Z,39.70
2023-03-19T09:26:08.192Z,44.53
2023-03-19T09:28:41.159Z,39.83
2023-03-19T09:33:46.729Z,46.17
2023-03-19T09:36:19.487Z,43.67
2023-03-19T09:38:52.513Z,41.17
2023-03-19T09:41:33.991Z,41.00
2023-03-19T09:44:14.120Z,39.75
2023-03-19T09:46:53.625Z,39.97
2023-03-19T09:49:29.774Z,38.70
2023-03-19T09:52:16.319Z,44.13
2023-03-19T09:54:52.499Z,38.65
2023-03-19T09:57:29.785Z,47.88
2023-03-19T10:00:05.031Z,41.15
2023-03-19T10:02:41.831Z,37.08
2023-03-19T10:05:25.131Z,40.05
2023-03-19T10:11:04.767Z,49.70
2023-03-19T10:13:53.862Z,46.03
2023-03-19T10:16:29.994Z,42.03
2023-03-19T10:19:05.756Z,50.65
2023-03-19T10:21:42.241Z,43.63
2023-03-19T10:24:22.591Z,48.08
2023-03-19T10:27:00.304Z,41.33
2023-03-19T10:29:35.632Z,45.30
2023-03-19T10:32:18.302Z,45.55
2023-03-19T10:34:53.955Z,42.50
2023-03-19T10:37:30.020Z,46.92
2023-03-19T10:40:03.495Z,47.60
2023-03-19T10:42:46.076Z,46.22
2023-03-19T10:45:28.574Z,34.70
2023-03-19T10:48:03.801Z,40.97
2023-03-19T10:50:39.770Z,38.10
2023-03-19T10:53:31.442Z,33.63
2023-03-19T10:56:06.615Z,34.38
2023-03-19T10:58:40.449Z,32.90
2023-03-19T11:01:14.636Z,42.33
2023-03-19T11:03:52.846Z,41.55
2023-03-19T11:06:28.372Z,37.45
2023-03-19T11:09:02.593Z,39.38
2023-03-19T11:11:37.900Z,36.13
2023-03-19T11:14:19.302Z,39.05
2023-03-19T11:17:05.398Z,32.88
2023-03-19T11:19:42.342Z,32.55
2023-03-19T11:22:21.194Z,31.90
2023-03-19T11:24:56.396Z,32.22
2023-03-19T11:27:31.533Z,32.55
2023-03-19T11:30:15.105Z,37.22
2023-03-19T11:33:13.825Z,33.97
2023-03-19T11:35:52.663Z,31.60
2023-03-19T11:38:38.038Z,29.65
2023-03-19T11:41:20.463Z,31.02
2023-03-19T11:43:57.813Z,35.70
2023-03-19T11:46:41.741Z,34.95
2023-03-19T11:49:50.777Z,34.55
2023-03-19T11:52:31.188Z,34.15
2023-03-19T11:55:23.205Z,43.67
2023-03-19T11:58:09.325Z,32.75
2023-03-19T12:00:47.650Z,41.03
2023-03-19T12:03:53.842Z,39.92
2023-03-19T12:06:42.077Z,39.20
2023-03-19T12:09:28.301Z,37.67
2023-03-19T12:12:13.347Z,35.30
2023-03-19T12:14:59.380Z,35.05
2023-03-19T12:18:04.364Z,33.30
2023-03-19T12:20:47.497Z,34.08
2023-03-19T12:26:09.062Z,30.52
2023-03-19T12:28:45.824Z,31.95
2023-03-19T12:31:35.621Z,30.85
2023-03-19T12:34:20.815Z,32.75
2023-03-19T12:36:58.565Z,30.20
2023-03-19T12:39:37.525Z,25.95
2023-03-19T12:42:18.817Z,26.33
2023-03-19T12:44:56.895Z,29.33
2023-03-19T12:47:34.819Z,26.73
2023-03-19T12:50:10.672Z,22.73
2023-03-19T12:52:46.677Z,25.05
2023-03-19T12:55:23.611Z,27.60
2023-03-19T12:58:00.115Z,30.35
2023-03-19T13:00:35.823Z,25.98
2023-03-19T13:03:15.690Z,24.38
2023-03-19T13:05:54.045Z,25.00
2023-03-19T13:08:34.165Z,22.08
2023-03-19T13:11:14.883Z,21.10
2023-03-19T13:13:54.597Z,23.90
2023-03-19T13:16:34.913Z,20.85
2023-03-19T13:19:18.077Z,20.67
2023-03-19T13:21:54.479Z,24.65
2023-03-19T13:24:30.932Z,25.38
2023-03-19T13:27:08.278Z,22.73
2023-03-19T13:29:54.305Z,26.10
2023-03-19T13:32:37.130Z,21.70
2023-03-19T13:35:21.581Z,24.75
2023-03-19T13:37:59.021Z,24.15
2023-03-19T13:40:44.628Z,24.00
2023-03-19T13:43:43.996Z,26.25
2023-03-19T13:46:40.559Z,20.65
2023-03-19T13:49:28.819Z,20.40
2023-03-19T13:52:37.834Z,19.60
2023-03-19T13:55:34.439Z,19.35
2023-03-19T13:58:38.025Z,20.92
2023-03-19T14:01:33.797Z,19.70
2023-03-19T14:04:18.568Z,15.35
2023-03-19T14:06:54.366Z,14.13
2023-03-19T14:09:46.108Z,15.20
2023-03-19T14:12:32.953Z,14.77
2023-03-19T14:15:18.121Z,15.18
2023-03-19T14:18:07.187Z,16.38
2023-03-19T14:21:06.402Z,15.98
2023-03-19T14:23:47.223Z,12.93
2023-03-19T14:26:30.615Z,14.50
2023-03-19T14:29:07.325Z,14.93
2023-03-19T14:31:46.208Z,12.05
2023-03-19T14:34:23.179Z,13.52
2023-03-19T14:37:02.871Z,12.88
2023-03-19T14:39:40.972Z,12.80
2023-03-19T14:42:20.870Z,11.60
2023-03-19T14:45:32.522Z,12.25
2023-03-19T14:48:21.824Z,12.35
2023-03-19T14:51:36.017Z,13.38
2023-03-19T14:54:21.767Z,14.65
2023-03-19T14:56:57.532Z,12.55
2023-03-19T14:59:38.124Z,18.48
2023-03-19T15:02:22.794Z,17.63
2023-03-19T15:04:58.342Z,21.75
2023-03-19T15:07:38.459Z,15.98
2023-03-19T15:10:18.658Z,24.98
2023-03-19T15:13:19.854Z,25.80
2023-03-19T15:16:05.341Z,29.83
2023-03-19T15:18:38.842Z,28.80
2023-03-19T15:21:11.711Z,33.25
2023-03-19T15:23:47.818Z,29.42
2023-03-19T15:26:32.939Z,28.05
2023-03-19T15:29:05.911Z,29.35
2023-03-19T15:31:51.796Z,28.70
2023-03-19T15:34:30.743Z,32.22
2023-03-19T15:37:07.869Z,32.40
2023-03-19T15:39:46.175Z,29.90
2023-03-19T15:42:23.480Z,31.13
2023-03-19T15:45:03.668Z,32.20
2023-03-19T15:47:41.237Z,30.70
2023-03-19T15:50:17.052Z,29.40
2023-03-19T15:52:55.559Z,29.02
2023-03-19T15:55:28.750Z,27.90
2023-03-19T15:58:07.600Z,30.20
2023-03-19T16:00:42.201Z,26.80
2023-03-19T16:03:19.819Z,24.63
2023-03-19T16:05:59.643Z,23.75
2023-03-19T16:08:32.520Z,24.27
2023-03-19T16:13:57.999Z,21.37
2023-03-19T16:16:32.216Z,24.45
2023-03-19T16:19:05.243Z,18.95
2023-03-19T16:24:23.303Z,18.88
2023-03-19T16:26:58.347Z,19.30
2023-03-19T16:29:38.585Z,17.98
2023-03-19T16:32:20.840Z,18.60
2023-03-19T16:34:55.452Z,20.73
2023-03-19T16:37:33.902Z,17.70
2023-03-19T16:40:40.886Z,20.35
2023-03-19T16:43:19.561Z,18.38
2023-03-19T16:46:04.743Z,21.35
2023-03-19T16:48:37.508Z,18.67
2023-03-19T16:51:17.863Z,18.90
2023-03-19T16:53:51.129Z,17.90
2023-03-19T16:58:56.552Z,17.00
2023-03-19T17:01:31.416Z,18.40
2023-03-19T17:04:11.287Z,23.48
2023-03-19T17:06:44.155Z,13.02
2023-03-19T17:11:49.689Z,17.03
2023-03-19T17:16:57.232Z,21.23
2023-03-19T17:19:35.398Z,20.58
2023-03-19T17:22:13.194Z,15.63
2023-03-19T17:24:46.099Z,19.42
2023-03-19T17:27:18.795Z,17.70
2023-03-19T17:29:51.530Z,16.75
2023-03-19T17:32:25.923Z,19.02
2023-03-19T17:34:58.682Z,17.23
2023-03-19T17:37:32.283Z,13.50
2023-03-19T17:40:17.399Z,14.13
2023-03-19T17:42:51.905Z,18.55
2023-03-19T17:45:27.684Z,18.60
2023-03-19T17:48:02.011Z,13.88
2023-03-19T17:50:35.021Z,15.77
2023-03-19T17:53:11.736Z,20.85
2023-03-19T17:55:44.474Z,13.52
2023-03-19T17:58:19.150Z,14.00
2023-03-19T18:00:53.133Z,12.10
2023-03-19T18:03:28.952Z,13.40
2023-03-19T18:06:06.670Z,10.88
2023-03-19T18:08:39.459Z,9.75
2023-03-19T18:11:12.547Z,11.23
2023-03-19T18:13:45.268Z,12.45
2023-03-19T18:16:22.566Z,9.10
2023-03-19T18:19:00.363Z,11.88
2023-03-19T18:21:33.486Z,8.80
2023-03-19T18:24:09.104Z,9.35
2023-03-19T18:26:41.915Z,9.10
2023-03-19T18:29:16.380Z,9.32
2023-03-19T18:31:51.117Z,9.80
2023-03-19T18:34:26.477Z,7.10
2023-03-19T18:37:00.022Z,8.20
2023-03-19T18:39:36.331Z,7.30
2023-03-19T18:42:10.688Z,8.18
2023-03-19T18:44:44.221Z,8.05
2023-03-19T18:47:17.192Z,10.57
2023-03-19T18:52:26.785Z,10.75
2023-03-19T18:54:59.592Z,10.60
2023-03-19T18:57:32.478Z,8.60
2023-03-19T19:00:07.829Z,8.77
2023-03-19T19:02:40.618Z,5.18
2023-03-19T19:05:18.450Z,8.98
2023-03-19T19:07:51.486Z,9.02
2023-03-19T19:12:57.772Z,11.77
2023-03-19T19:15:33.808Z,7.30
2023-03-19T19:18:15.817Z,8.15
2023-03-19T19:20:52.487Z,7.38
2023-03-19T19:23:27.256Z,7.45
2023-03-19T19:26:00.117Z,9.10
2023-03-19T19:31:23.632Z,6.55
2023-03-19T19:33:56.842Z,7.38
2023-03-19T19:36:31.682Z,6.25
2023-03-19T19:39:04.724Z,10.40
2023-03-19T19:41:40.584Z,7.60
2023-03-19T19:44:19.874Z,9.48
2023-03-19T19:46:54.527Z,4.68
2023-03-19T19:49:27.208Z,7.05
2023-03-19T19:52:01.667Z,10.68
2023-03-19T19:54:37.096Z,9.52
2023-03-19T19:57:19.348Z,4.53
2023-03-19T19:59:53.488Z,6.83
2023-03-19T20:02:28.706Z,11.23
2023-03-19T20:05:01.487Z,8.18
2023-03-19T20:07:36.084Z,12.07
2023-03-19T20:10:09.870Z,4.82
2023-03-19T20:12:44.911Z,8.48
2023-03-19T20:15:20.576Z,5.75
2023-03-19T20:17:54.633Z,10.25
2023-03-19T20:20:31.349Z,6.68
2023-03-19T20:23:05.445Z,7.97
2023-03-19T20:25:38.506Z,8.48
2023-03-19T20:28:17.286Z,7.95
2023-03-19T20:30:53.752Z,6.85
2023-03-19T20:33:27.376Z,7.50
2023-03-19T20:36:00.578Z,6.55
2023-03-19T20:38:37.417Z,9.38
2023-03-19T20:41:20.216Z,9.38
2023-03-19T20:43:53.898Z,10.10
2023-03-19T20:46:26.693Z,9.90
2023-03-19T20:49:01.522Z,11.60
2023-03-19T20:51:34.305Z,9.93
2023-03-19T20:54:08.876Z,10.30
2023-03-19T20:56:43.039Z,11.38
2023-03-19T20:59:15.726Z,10.95
2023-03-19T21:01:48.533Z,8.40
2023-03-19T21:04:21.570Z,10.82
2023-03-19T21:09:28.797Z,9.93
2023-03-19T21:12:01.477Z,10.85
2023-03-19T21:14:34.799Z,11.85
2023-03-19T21:17:07.577Z,12.88
2023-03-19T21:19:42.685Z,10.77
2023-03-19T21:22:17.778Z,6.97
2023-03-19T21:24:54.394Z,9.15
2023-03-19T21:27:28.873Z,9.65
2023-03-19T21:30:05.311Z,7.88
2023-03-19T21:32:38.093Z,8.93
2023-03-19T21:37:52.358Z,8.50
2023-03-19T21:40:31.564Z,7.97
2023-03-19T21:43:05.000Z,8.88
2023-03-19T21:45:38.040Z,5.80
2023-03-19T21:48:24.303Z,9.98
2023-03-19T21:50:57.996Z,6.90
2023-03-19T21:53:31.169Z,7.05
2023-03-19T21:56:05.512Z,6.53
2023-03-19T21:58:38.172Z,10.02
2023-03-19T22:01:18.011Z,7.45
2023-03-19T22:03:51.586Z,6.15
2023-03-19T22:06:24.971Z,7.55
2023-03-19T22:08:57.697Z,6.75
2023-03-19T22:11:34.491Z,8.45
2023-03-19T22:14:13.087Z,8.88
2023-03-19T22:16:46.486Z,8.80
2023-03-19T22:19:19.230Z,11.10
2023-03-19T22:21:51.956Z,6.38
2023-03-19T22:24:24.698Z,7.63
2023-03-19T22:26:59.131Z,6.97
2023-03-19T22:29:34.003Z,10.32
2023-03-19T22:32:10.618Z,7.93
2023-03-19T22:34:43.619Z,10.75
2023-03-19T22:39:57.416Z,9.82
2023-03-19T22:45:04.351Z,10.35
2023-03-19T22:50:18.485Z,12.10
2023-03-19T22:52:51.853Z,8.45
2023-03-19T22:55:25.124Z,9.27
2023-03-19T22:57:59.285Z,13.35
2023-03-19T23:00:31.998Z,12.05
2023-03-19T23:03:06.887Z,10.95
2023-03-19T23:05:42.257Z,10.05
2023-03-19T23:08:18.009Z,11.00
2023-03-19T23:10:53.420Z,12.80
2023-03-19T23:13:27.512Z,14.60
2023-03-19T23:16:02.427Z,8.40
2023-03-19T23:18:37.597Z,11.73
2023-03-19T23:21:14.469Z,7.72
2023-03-19T23:23:47.712Z,11.32
2023-03-19T23:26:26.658Z,12.52
2023-03-19T23:29:07.999Z,12.32
2023-03-19T23:31:40.691Z,12.88
2023-03-19T23:34:13.614Z,9.63
2023-03-19T23:39:19.543Z,10.40
2023-03-19T23:41:56.911Z,11.55
2023-03-19T23:44:31.194Z,12.45
2023-03-19T23:47:03.980Z,12.93
2023-03-19T23:49:36.935Z,11.32
2023-03-19T23:54:47.596Z,14.00
2023-03-19T23:57:21.905Z,9.23
2023-03-19T23:59:56.760Z,13.40
